Aviation Digital Data Service (ADDS)

Output produced by METARs form (1129 UTC 25 June 2019)
found at http://www.aviationweather.gov/metar/data/
 
Forecast for: EBBR (BRUSSELS NATIONA, BE)
Text: TAF EBBR 251110Z 2512/2618 22008KT CAVOK
Forecast period: 1200 UTC 25 June 2019 to 1800 UTC 26 June 2019
Forecast type: FROM: standard forecast or significant change
Winds: from the SW (220 degrees) at 9 MPH (8 knots; 4.1 m/s)
Visibility: 6 or more miles 10+ km)
Ceiling: unknown
Clouds: missing
Weather: NSW  (no significant weather)
Text: PROB30
Forecast period: 0200 to 0700 UTC 26 June 2019
Forecast type: TEMPORARY: The following changes expected for less than half the time period
Visibility: 2.49 miles (4.01 km)
Ceiling: 600 feet AGL
Clouds: broken clouds at 600 feet AGL
Weather: BR  (mist)